Airfield :







YOU CAN JOIN US ON...

 
LOGIN :

Register | Disclaimer

   EN    FR    IT 

 









Legend :    VFR   Marginal VFR   IFR   Intensive IFR   Very Intensive IFR
Visi :
Ceiling :
>= 8 km
>= 3000ft
5 to 8 km
1000 to 3000 ft
1500m to 5 km
500 to 1000 ft
800 to 1500m
200 to 500 ft
< 800m
< 200 ft
Symbols :   Thunderstorms  Fog  Heavy snow  Heavy precipitations  Wind > 20 kt






- Airport Elevation : 352 ft


KAUG - Augusta State

CURRENT METAR :
  • 120453Z AUTO 29005KT 10SM FEW038 M05/M09 A3024 RMK AO2 SLP244 T10501089 400391067

EXPIRED METARs :
  • 120353Z AUTO 20006KT 10SM FEW070 M06/M09 A3019 RMK AO2 SLP229 T10611094
  • 120253Z AUTO 19004KT 10SM CLR M06/M09 A3018 RMK AO2 SLP228 T10611094 55005

TAF KAUG
Valid from the 12 at 04:00 until the 13 at 00:00 UTC


120417Z 1204/1224 VRB03KT P6SM SKC
TEMPO 1204/1205 1SM -SHSN BR BKN035
FM120500 28009KT P6SM FEW050



MET'MAP, your aeronautical weather chart ! - Copyright ORBIFLY December 2007 - Disclaimer

ORBIFLY MET'MAP TEAM :

Programming & Development : Alexandra Zaïnal
Concept & original design : Baudouin d'Aumeries
Assistance for programming : Marc-Olivier Méhu
Technical & hardware support : Manuel Goepfert

Contact : metmap@orbifly.com




SOURCES & CREDITS :

   NOAA